Centropolis, Kansas
Current Conditions -  °F | °C
As of 2:53 AM on Sunday 23 Nov 2014 (Local Time) from KIXD Reporting Station
Overcast Overcast  
Wind Chill: 52°   Ceiling: 1800
Heat Index: 52°   Visibility: 10mi
Dew Point: 50°   Wind: 10mph
Humidity: 93%   Direction: 160°SSE
Pressure: 29.61"   Gusts: NA
Location:  38.6288°N, 95.2897°W
Report Text: KIXD 230853Z AUTO 16009KT 10SM SCT009 OVC018 11/10 A2961 RMK AO2 SLP022 T01110100 56028
Loading
Personal Weather Stations






























Interactive Weather Map New forecast layout! Learn more

10-Day Weather Forecast

Advertisements
Track Severe Weather on mobile